createdAt,value
2019-03-03T00:00:05.466Z,60.62
2019-03-03T00:02:38.710Z,60.08
2019-03-03T00:05:09.604Z,59.98
2019-03-03T00:07:41.118Z,60.30
2019-03-03T00:10:14.104Z,59.95
2019-03-03T00:12:45.448Z,60.14
2019-03-03T00:15:16.597Z,60.22
2019-03-03T00:17:49.035Z,60.30
2019-03-03T00:20:19.388Z,60.69
2019-03-03T00:22:51.449Z,60.36
2019-03-03T00:25:22.695Z,60.63
2019-03-03T00:27:54.731Z,60.83
2019-03-03T00:30:25.287Z,60.34
2019-03-03T00:32:58.172Z,60.87
2019-03-03T00:35:31.631Z,60.90
2019-03-03T00:38:15.837Z,60.75
2019-03-03T00:40:58.629Z,60.74
2019-03-03T00:43:33.997Z,60.68
2019-03-03T00:46:07.559Z,60.60
2019-03-03T00:48:39.837Z,60.94
2019-03-03T00:51:30.644Z,61.13
2019-03-03T00:54:08.851Z,61.20
2019-03-03T00:56:41.016Z,60.96
2019-03-03T00:59:30.796Z,61.22
2019-03-03T01:02:06.030Z,61.24
2019-03-03T01:04:46.185Z,61.25
2019-03-03T01:07:33.922Z,61.75
2019-03-03T01:10:17.413Z,61.79
2019-03-03T01:12:56.887Z,61.70
2019-03-03T01:15:29.050Z,61.86
2019-03-03T01:18:18.314Z,61.96
2019-03-03T01:21:06.052Z,61.93
2019-03-03T01:23:38.904Z,61.69
2019-03-03T01:26:10.891Z,62.08
2019-03-03T01:28:42.440Z,62.08
2019-03-03T01:31:13.585Z,61.95
2019-03-03T01:33:45.733Z,62.02
2019-03-03T01:36:16.173Z,62.28
2019-03-03T01:38:47.525Z,62.55
2019-03-03T01:41:18.257Z,62.47
2019-03-03T01:43:51.290Z,62.70
2019-03-03T01:46:23.608Z,62.50
2019-03-03T01:48:56.701Z,62.39
2019-03-03T01:51:28.351Z,62.40
2019-03-03T01:54:00.619Z,62.56
2019-03-03T01:56:32.111Z,62.62
2019-03-03T01:59:03.007Z,62.97
2019-03-03T02:01:35.073Z,63.01
2019-03-03T02:04:05.604Z,62.70
2019-03-03T02:06:37.660Z,63.52
2019-03-03T02:09:11.991Z,63.80
2019-03-03T02:11:43.353Z,64.19
2019-03-03T02:14:13.752Z,64.69
2019-03-03T02:16:45.195Z,65.10
2019-03-03T02:19:15.728Z,65.01
2019-03-03T02:21:50.144Z,65.27
2019-03-03T02:24:21.286Z,65.22
2019-03-03T02:26:54.787Z,64.95
2019-03-03T02:29:25.730Z,65.16
2019-03-03T02:31:55.881Z,65.53
2019-03-03T02:34:27.191Z,65.96
2019-03-03T02:37:00.893Z,66.26
2019-03-03T02:39:31.567Z,66.37
2019-03-03T02:42:03.384Z,66.23
2019-03-03T02:44:34.220Z,65.88
2019-03-03T02:47:07.346Z,64.36
2019-03-03T02:49:38.246Z,63.89
2019-03-03T02:52:09.882Z,64.42
2019-03-03T02:54:42.881Z,63.95
2019-03-03T02:57:15.272Z,63.89
2019-03-03T02:59:47.107Z,63.80
2019-03-03T03:02:20.413Z,64.35
2019-03-03T03:04:53.181Z,64.60
2019-03-03T03:07:26.064Z,64.82
2019-03-03T03:09:59.593Z,65.08
2019-03-03T03:12:44.423Z,65.17
2019-03-03T03:15:20.925Z,65.22
2019-03-03T03:18:08.946Z,65.36
2019-03-03T03:20:40.886Z,65.16
2019-03-03T03:23:14.274Z,65.52
2019-03-03T03:25:54.129Z,66.05
2019-03-03T03:28:26.096Z,65.78
2019-03-03T03:31:01.441Z,66.05
2019-03-03T03:33:35.970Z,66.15
2019-03-03T03:36:11.811Z,66.68
2019-03-03T03:38:46.023Z,66.83
2019-03-03T03:41:23.754Z,67.10
2019-03-03T03:44:06.637Z,67.50
2019-03-03T03:46:46.687Z,68.14
2019-03-03T03:49:25.122Z,68.79
2019-03-03T03:52:04.541Z,69.10
2019-03-03T03:54:47.971Z,69.49
2019-03-03T03:57:24.745Z,69.68
2019-03-03T04:00:09.536Z,70.25
2019-03-03T04:02:41.672Z,70.54
2019-03-03T04:05:15.472Z,70.90
2019-03-03T04:07:59.950Z,71.13
2019-03-03T04:10:42.335Z,71.44
2019-03-03T04:13:34.660Z,71.57
2019-03-03T04:16:16.667Z,71.71
2019-03-03T04:18:52.524Z,71.71
2019-03-03T04:21:41.176Z,71.71
2019-03-03T04:24:16.712Z,71.94
2019-03-03T04:26:50.623Z,71.87
2019-03-03T04:29:27.396Z,71.50
2019-03-03T04:32:00.184Z,71.53
2019-03-03T04:34:41.865Z,72.12
2019-03-03T04:37:28.014Z,72.40
2019-03-03T04:40:16.094Z,72.70
2019-03-03T04:42:54.307Z,72.70
2019-03-03T04:45:36.210Z,72.18
2019-03-03T04:48:08.815Z,72.17
2019-03-03T04:50:46.034Z,72.38
2019-03-03T04:53:35.632Z,72.21
2019-03-03T04:56:28.699Z,72.28
2019-03-03T04:59:04.441Z,72.25
2019-03-03T05:01:56.475Z,72.27
2019-03-03T05:04:32.024Z,72.02
2019-03-03T05:07:07.601Z,71.73
2019-03-03T05:09:46.591Z,71.64
2019-03-03T05:12:19.729Z,71.51
2019-03-03T05:14:54.502Z,71.53
2019-03-03T05:17:42.970Z,71.42
2019-03-03T05:20:18.505Z,71.39
2019-03-03T05:22:50.670Z,71.17
2019-03-03T05:25:24.063Z,70.98
2019-03-03T05:27:56.223Z,70.52
2019-03-03T05:30:29.701Z,70.83
2019-03-03T05:33:00.861Z,70.86
2019-03-03T05:35:31.410Z,71.11
2019-03-03T05:38:02.027Z,71.18
2019-03-03T05:40:33.263Z,70.95
2019-03-03T05:43:06.085Z,70.73
2019-03-03T05:45:36.725Z,70.87
2019-03-03T05:48:07.407Z,70.86
2019-03-03T05:50:38.345Z,70.58
2019-03-03T05:53:09.740Z,70.19
2019-03-03T05:55:42.475Z,69.49
2019-03-03T05:58:15.045Z,69.40
2019-03-03T06:00:45.575Z,69.09
2019-03-03T06:03:19.690Z,69.24
2019-03-03T06:05:51.918Z,68.37
2019-03-03T06:08:22.185Z,68.01
2019-03-03T06:10:53.213Z,68.01
2019-03-03T06:13:26.290Z,67.99
2019-03-03T06:15:57.143Z,67.65
2019-03-03T06:18:28.008Z,66.90
2019-03-03T06:21:00.246Z,66.70
2019-03-03T06:23:31.485Z,66.45
2019-03-03T06:26:03.036Z,65.43
2019-03-03T06:28:35.202Z,64.81
2019-03-03T06:31:06.050Z,64.20
2019-03-03T06:33:38.696Z,64.03
2019-03-03T06:36:10.167Z,63.57
2019-03-03T06:38:40.798Z,63.38
2019-03-03T06:41:11.836Z,64.07
2019-03-03T06:43:43.181Z,63.80
2019-03-03T06:46:13.918Z,63.56
2019-03-03T06:48:48.172Z,63.23
2019-03-03T06:51:18.459Z,62.39
2019-03-03T06:53:50.103Z,62.26
2019-03-03T06:56:22.165Z,59.17
2019-03-03T06:58:53.309Z,57.96
2019-03-03T07:01:24.656Z,57.78
2019-03-03T07:03:55.391Z,56.94
2019-03-03T07:06:27.244Z,56.94
2019-03-03T07:08:57.674Z,56.37
2019-03-03T07:11:29.123Z,55.76
2019-03-03T07:14:00.574Z,55.70
2019-03-03T07:16:32.338Z,53.42
2019-03-03T07:19:03.062Z,53.11
2019-03-03T07:21:34.106Z,52.43
2019-03-03T07:24:06.767Z,51.87
2019-03-03T07:26:39.250Z,49.40
2019-03-03T07:29:10.602Z,49.24
2019-03-03T07:31:41.722Z,47.93
2019-03-03T07:34:12.676Z,47.44
2019-03-03T07:36:43.518Z,46.44
2019-03-03T07:39:18.221Z,46.06
2019-03-03T07:41:49.181Z,45.80
2019-03-03T07:44:19.701Z,42.92
2019-03-03T07:46:51.870Z,43.60
2019-03-03T07:49:23.009Z,44.23
2019-03-03T07:51:53.639Z,43.25
2019-03-03T07:54:26.722Z,42.21
2019-03-03T07:56:59.716Z,42.99
2019-03-03T07:59:30.648Z,43.20
2019-03-03T08:02:03.121Z,43.34
2019-03-03T08:04:33.867Z,42.61
2019-03-03T08:07:05.009Z,42.28
2019-03-03T08:09:35.629Z,41.40
2019-03-03T08:12:06.769Z,41.52
2019-03-03T08:14:37.192Z,38.94
2019-03-03T08:17:09.772Z,39.24
2019-03-03T08:19:40.812Z,37.73
2019-03-03T08:22:12.773Z,37.73
2019-03-03T08:24:44.222Z,37.78
2019-03-03T08:27:17.001Z,36.22
2019-03-03T08:29:48.451Z,36.47
2019-03-03T08:32:18.781Z,34.97
2019-03-03T08:34:49.569Z,34.10
2019-03-03T08:37:20.546Z,34.19
2019-03-03T08:39:51.585Z,34.59
2019-03-03T08:42:29.078Z,34.03
2019-03-03T08:45:01.447Z,33.22
2019-03-03T08:47:52.844Z,33.35
2019-03-03T08:50:34.407Z,32.73
2019-03-03T08:53:12.153Z,32.70
2019-03-03T08:55:53.837Z,33.21
2019-03-03T08:58:29.493Z,32.63
2019-03-03T09:01:05.982Z,32.26
2019-03-03T09:03:53.170Z,31.87
2019-03-03T09:06:25.897Z,29.62
2019-03-03T09:09:10.873Z,30.50
2019-03-03T09:11:59.260Z,30.31
2019-03-03T09:14:41.256Z,31.18
2019-03-03T09:17:18.952Z,31.81
2019-03-03T09:20:01.467Z,30.78
2019-03-03T09:22:43.968Z,29.68
2019-03-03T09:25:28.631Z,29.43
2019-03-03T09:28:20.687Z,28.57
2019-03-03T09:30:53.964Z,27.96
2019-03-03T09:33:44.642Z,28.09
2019-03-03T09:36:17.329Z,27.99
2019-03-03T09:39:07.219Z,27.47
2019-03-03T09:41:50.641Z,26.83
2019-03-03T09:44:29.794Z,26.79
2019-03-03T09:47:11.414Z,27.09
2019-03-03T09:49:43.526Z,26.99
2019-03-03T09:52:15.587Z,25.30
2019-03-03T09:54:50.258Z,25.17
2019-03-03T09:57:38.658Z,25.04
2019-03-03T10:00:13.475Z,24.53
2019-03-03T10:02:45.343Z,25.30
2019-03-03T10:05:27.143Z,23.66
2019-03-03T10:08:11.798Z,23.80
2019-03-03T10:10:47.781Z,23.99
2019-03-03T10:13:27.071Z,24.41
2019-03-03T10:16:17.787Z,23.98
2019-03-03T10:18:49.849Z,22.21
2019-03-03T10:21:36.946Z,23.47
2019-03-03T10:24:13.123Z,22.96
2019-03-03T10:27:01.591Z,22.45
2019-03-03T10:29:35.788Z,21.74
2019-03-03T10:32:20.964Z,21.44
2019-03-03T10:35:01.834Z,23.03
2019-03-03T10:37:46.909Z,22.07
2019-03-03T10:40:29.198Z,22.41
2019-03-03T10:43:04.137Z,22.36
2019-03-03T10:45:36.816Z,20.96
2019-03-03T10:48:27.510Z,20.97
2019-03-03T10:51:17.391Z,21.67
2019-03-03T10:53:53.862Z,21.87
2019-03-03T10:56:42.821Z,21.58
2019-03-03T10:59:21.998Z,21.34
2019-03-03T11:02:01.019Z,21.04
2019-03-03T11:04:50.550Z,20.08
2019-03-03T11:07:23.232Z,20.21
2019-03-03T11:10:05.119Z,20.93
2019-03-03T11:12:37.802Z,20.09
2019-03-03T11:15:18.467Z,20.71
2019-03-03T11:17:47.975Z,19.62
2019-03-03T11:20:26.072Z,20.19
2019-03-03T11:23:07.354Z,19.52
2019-03-03T11:25:57.437Z,19.82
2019-03-03T11:28:35.954Z,19.70
2019-03-03T11:31:10.886Z,18.60
2019-03-03T11:33:46.642Z,18.73
2019-03-03T11:36:20.080Z,20.30
2019-03-03T11:38:55.377Z,20.43
2019-03-03T11:41:34.193Z,19.62
2019-03-03T11:44:16.291Z,19.22
2019-03-03T11:46:51.351Z,18.72
2019-03-03T11:49:28.305Z,20.74
2019-03-03T11:52:06.427Z,19.67
2019-03-03T11:54:39.704Z,19.85
2019-03-03T11:57:16.986Z,19.88
2019-03-03T11:59:52.069Z,21.41
2019-03-03T12:02:39.866Z,20.96
2019-03-03T12:05:16.628Z,21.38
2019-03-03T12:08:05.078Z,21.42
2019-03-03T12:10:40.250Z,21.14
2019-03-03T12:13:14.568Z,19.45
2019-03-03T12:16:06.667Z,19.56
2019-03-03T12:18:42.422Z,19.75
2019-03-03T12:21:23.593Z,19.38
2019-03-03T12:23:55.972Z,19.68
2019-03-03T12:26:32.257Z,19.32
2019-03-03T12:29:22.515Z,17.94
2019-03-03T12:32:11.077Z,19.42
2019-03-03T12:34:47.120Z,20.88
2019-03-03T12:37:19.907Z,19.17
2019-03-03T12:39:52.022Z,18.76
2019-03-03T12:42:29.948Z,20.50
2019-03-03T12:45:08.388Z,20.84
2019-03-03T12:47:44.234Z,19.33
2019-03-03T12:50:32.889Z,19.08
2019-03-03T12:53:10.990Z,18.85
2019-03-03T12:55:47.459Z,20.07
2019-03-03T12:58:21.654Z,19.62
2019-03-03T13:01:11.492Z,20.46
2019-03-03T13:03:56.106Z,18.98
2019-03-03T13:06:46.926Z,19.66
2019-03-03T13:09:22.497Z,19.85
2019-03-03T13:11:54.614Z,20.06
2019-03-03T13:14:27.178Z,19.49
2019-03-03T13:17:01.622Z,19.66
2019-03-03T13:19:34.472Z,18.71
2019-03-03T13:22:23.139Z,17.42
2019-03-03T13:24:58.807Z,17.79
2019-03-03T13:27:34.954Z,17.57
2019-03-03T13:30:11.129Z,18.14
2019-03-03T13:33:02.436Z,17.89
2019-03-03T13:35:38.798Z,19.68
2019-03-03T13:38:13.836Z,20.47
2019-03-03T13:40:56.340Z,19.71
2019-03-03T13:43:29.103Z,20.84
2019-03-03T13:46:00.265Z,21.01
2019-03-03T13:48:31.311Z,21.33
2019-03-03T13:51:04.187Z,19.93
2019-03-03T13:53:34.925Z,19.63
2019-03-03T13:56:06.473Z,20.36
2019-03-03T13:58:38.543Z,20.69
2019-03-03T14:01:09.371Z,20.00
2019-03-03T14:03:40.953Z,21.28
2019-03-03T14:06:11.553Z,21.17
2019-03-03T14:08:44.908Z,20.86
2019-03-03T14:11:20.469Z,20.43
2019-03-03T14:13:52.079Z,19.86
2019-03-03T14:16:22.882Z,21.08
2019-03-03T14:18:53.822Z,21.59
2019-03-03T14:21:25.393Z,21.10
2019-03-03T14:23:58.097Z,21.58
2019-03-03T14:26:29.085Z,22.70
2019-03-03T14:29:00.745Z,23.00
2019-03-03T14:31:32.910Z,24.41
2019-03-03T14:34:03.543Z,25.99
2019-03-03T14:36:34.889Z,26.69
2019-03-03T14:39:06.655Z,26.74
2019-03-03T14:41:37.917Z,28.95
2019-03-03T14:44:10.677Z,29.95
2019-03-03T14:46:43.142Z,30.79
2019-03-03T14:49:15.676Z,30.97
2019-03-03T14:51:47.062Z,31.50
2019-03-03T14:54:19.781Z,32.52
2019-03-03T14:56:50.271Z,32.40
2019-03-03T14:59:22.951Z,32.90
2019-03-03T15:01:57.787Z,33.41
2019-03-03T15:04:28.301Z,33.70
2019-03-03T15:06:59.242Z,33.96
2019-03-03T15:09:31.411Z,34.21
2019-03-03T15:12:01.985Z,34.73
2019-03-03T15:14:34.306Z,34.76
2019-03-03T15:17:04.541Z,35.12
2019-03-03T15:19:37.669Z,35.32
2019-03-03T15:22:08.242Z,35.60
2019-03-03T15:24:39.741Z,35.85
2019-03-03T15:27:13.305Z,36.24
2019-03-03T15:29:46.282Z,36.38
2019-03-03T15:32:17.984Z,36.77
2019-03-03T15:34:50.301Z,36.64
2019-03-03T15:37:22.063Z,36.79
2019-03-03T15:39:53.135Z,36.93
2019-03-03T15:42:24.140Z,37.43
2019-03-03T15:44:55.185Z,37.67
2019-03-03T15:47:27.036Z,37.57
2019-03-03T15:49:58.284Z,37.55
2019-03-03T15:52:30.244Z,37.93
2019-03-03T15:55:02.839Z,37.84
2019-03-03T15:57:33.551Z,38.37
2019-03-03T16:00:06.341Z,38.20
2019-03-03T16:02:37.786Z,38.15
2019-03-03T16:05:10.588Z,38.35
2019-03-03T16:07:43.035Z,38.90
2019-03-03T16:10:22.110Z,38.71
2019-03-03T16:12:55.040Z,38.82
2019-03-03T16:15:26.396Z,39.10
2019-03-03T16:17:57.544Z,38.65
2019-03-03T16:20:29.392Z,38.81
2019-03-03T16:23:03.003Z,39.03
2019-03-03T16:25:35.266Z,38.67
2019-03-03T16:28:05.626Z,38.74
2019-03-03T16:30:37.448Z,38.69
2019-03-03T16:33:08.222Z,38.81
2019-03-03T16:35:39.559Z,38.44
2019-03-03T16:38:10.365Z,38.65
2019-03-03T16:40:41.719Z,38.45
2019-03-03T16:43:12.645Z,38.76
2019-03-03T16:45:43.828Z,38.83
2019-03-03T16:48:16.157Z,39.18
2019-03-03T16:50:47.206Z,39.33
2019-03-03T16:53:17.618Z,39.18
2019-03-03T16:55:49.173Z,39.18
2019-03-03T16:58:21.341Z,38.95
2019-03-03T17:00:52.279Z,39.02
2019-03-03T17:03:23.578Z,39.18
2019-03-03T17:05:54.664Z,39.25
2019-03-03T17:08:28.300Z,39.39
2019-03-03T17:11:00.744Z,39.51
2019-03-03T17:13:32.912Z,39.61
2019-03-03T17:16:05.280Z,39.60
2019-03-03T17:18:35.802Z,40.34
2019-03-03T17:21:07.665Z,40.26
2019-03-03T17:23:39.016Z,40.73
2019-03-03T17:26:09.612Z,40.73
2019-03-03T17:28:40.929Z,41.09
2019-03-03T17:31:13.397Z,41.40
2019-03-03T17:33:43.787Z,41.44
2019-03-03T17:36:16.058Z,41.16
2019-03-03T17:38:47.093Z,41.37
2019-03-03T17:41:20.267Z,41.43
2019-03-03T17:43:50.815Z,41.79
2019-03-03T17:46:21.450Z,41.63
2019-03-03T17:48:52.690Z,41.81
2019-03-03T17:51:23.828Z,42.12
2019-03-03T17:53:56.503Z,42.22
2019-03-03T17:56:27.730Z,42.37
2019-03-03T17:58:59.117Z,42.49
2019-03-03T18:01:30.602Z,42.68
2019-03-03T18:04:01.480Z,42.69
2019-03-03T18:06:38.698Z,42.99
2019-03-03T18:09:06.630Z,43.07
2019-03-03T18:11:37.367Z,43.24
2019-03-03T18:14:08.607Z,43.59
2019-03-03T18:16:40.364Z,43.51
2019-03-03T18:19:11.401Z,43.96
2019-03-03T18:21:41.996Z,43.86
2019-03-03T18:24:13.996Z,44.03
2019-03-03T18:26:45.135Z,44.18
2019-03-03T18:29:15.269Z,44.29
2019-03-03T18:31:47.217Z,44.23
2019-03-03T18:34:17.540Z,44.28
2019-03-03T18:36:48.273Z,43.96
2019-03-03T18:39:20.631Z,44.31
2019-03-03T18:41:51.581Z,44.58
2019-03-03T18:44:22.758Z,44.55
2019-03-03T18:46:53.965Z,44.37
2019-03-03T18:49:24.802Z,44.55
2019-03-03T18:51:55.840Z,44.63
2019-03-03T18:54:29.030Z,44.98
2019-03-03T18:56:59.888Z,44.90
2019-03-03T18:59:32.036Z,44.81
2019-03-03T19:02:02.800Z,44.70
2019-03-03T19:04:33.702Z,44.68
2019-03-03T19:07:05.259Z,44.58
2019-03-03T19:09:36.019Z,44.87
2019-03-03T19:12:08.154Z,44.88
2019-03-03T19:14:38.787Z,45.04
2019-03-03T19:17:09.621Z,44.99
2019-03-03T19:19:40.350Z,45.29
2019-03-03T19:22:11.806Z,45.45
2019-03-03T19:24:43.251Z,45.32
2019-03-03T19:27:15.620Z,45.69
2019-03-03T19:29:47.246Z,45.74
2019-03-03T19:32:18.048Z,45.76
2019-03-03T19:34:50.179Z,46.09
2019-03-03T19:37:20.615Z,46.07
2019-03-03T19:39:51.742Z,46.32
2019-03-03T19:42:22.378Z,46.72
2019-03-03T19:44:53.928Z,46.93
2019-03-03T19:47:25.476Z,46.92
2019-03-03T19:49:57.135Z,47.24
2019-03-03T19:52:28.167Z,47.44
2019-03-03T19:54:58.901Z,47.67
2019-03-03T19:57:29.737Z,47.94
2019-03-03T20:00:01.290Z,48.13
2019-03-03T20:02:33.159Z,48.28
2019-03-03T20:05:05.419Z,48.40
2019-03-03T20:07:36.253Z,48.27
2019-03-03T20:10:12.410Z,48.47
2019-03-03T20:12:44.814Z,48.59
2019-03-03T20:15:15.614Z,48.96
2019-03-03T20:17:47.614Z,49.17
2019-03-03T20:20:20.115Z,49.42
2019-03-03T20:22:51.224Z,49.71
2019-03-03T20:25:22.008Z,49.95
2019-03-03T20:27:56.238Z,50.21
2019-03-03T20:30:26.665Z,50.69
2019-03-03T20:32:57.807Z,51.10
2019-03-03T20:35:28.949Z,51.47
2019-03-03T20:37:59.479Z,51.92
2019-03-03T20:40:30.213Z,52.23
2019-03-03T20:43:01.352Z,52.68
2019-03-03T20:45:33.314Z,53.20
2019-03-03T20:48:04.358Z,53.57
2019-03-03T20:50:38.677Z,53.72
2019-03-03T20:53:09.909Z,54.43
2019-03-03T20:55:41.702Z,54.79
2019-03-03T20:58:15.274Z,55.20
2019-03-03T21:00:46.313Z,55.62
2019-03-03T21:03:16.631Z,55.92
2019-03-03T21:05:48.798Z,56.24
2019-03-03T21:08:19.476Z,56.90
2019-03-03T21:10:50.776Z,57.35
2019-03-03T21:13:21.911Z,57.80
2019-03-03T21:15:52.854Z,58.10
2019-03-03T21:18:23.588Z,58.50
2019-03-03T21:20:55.958Z,58.90
2019-03-03T21:23:28.947Z,58.92
2019-03-03T21:25:59.776Z,59.47
2019-03-03T21:28:31.570Z,59.78
2019-03-03T21:31:02.197Z,60.02
2019-03-03T21:33:33.614Z,60.29
2019-03-03T21:36:05.471Z,60.67
2019-03-03T21:38:36.723Z,60.72
2019-03-03T21:41:09.612Z,60.96
2019-03-03T21:43:41.667Z,61.09
2019-03-03T21:46:14.441Z,61.20
2019-03-03T21:48:45.863Z,61.37
2019-03-03T21:51:17.036Z,61.43
2019-03-03T21:53:48.486Z,61.51
2019-03-03T21:56:19.685Z,61.31
2019-03-03T21:58:50.773Z,61.35
2019-03-03T22:01:21.807Z,61.40
2019-03-03T22:03:54.478Z,61.34
2019-03-03T22:06:25.425Z,61.38
2019-03-03T22:08:58.001Z,61.39
2019-03-03T22:11:29.136Z,61.54
2019-03-03T22:14:00.200Z,61.88
2019-03-03T22:16:31.536Z,62.03
2019-03-03T22:19:03.084Z,62.17
2019-03-03T22:21:34.430Z,62.45
2019-03-03T22:24:05.265Z,62.50
2019-03-03T22:26:35.897Z,62.60
2019-03-03T22:29:07.543Z,62.84
2019-03-03T22:31:39.303Z,62.93
2019-03-03T22:34:12.491Z,63.05
2019-03-03T22:36:43.295Z,63.07
2019-03-03T22:39:14.780Z,63.01
2019-03-03T22:41:47.864Z,62.93
2019-03-03T22:44:20.574Z,63.16
2019-03-03T22:46:53.733Z,63.15
2019-03-03T22:49:24.258Z,63.41
2019-03-03T22:51:55.914Z,63.35
2019-03-03T22:54:28.486Z,63.67
2019-03-03T22:56:59.118Z,63.71
2019-03-03T22:59:30.874Z,63.87
2019-03-03T23:02:01.420Z,63.99
2019-03-03T23:04:35.616Z,64.07
2019-03-03T23:07:15.570Z,64.30
2019-03-03T23:10:22.648Z,64.31
2019-03-03T23:13:14.885Z,64.39
2019-03-03T23:16:13.576Z,64.39
2019-03-03T23:19:08.768Z,64.38
2019-03-03T23:21:58.482Z,64.61
2019-03-03T23:24:41.890Z,64.76
2019-03-03T23:27:14.714Z,64.65
2019-03-03T23:29:45.195Z,64.76
2019-03-03T23:32:18.380Z,64.71
2019-03-03T23:34:49.222Z,64.86
2019-03-03T23:37:19.950Z,64.89
2019-03-03T23:39:51.708Z,64.93
2019-03-03T23:42:22.042Z,65.12
2019-03-03T23:44:53.378Z,65.36
2019-03-03T23:47:24.344Z,65.70
2019-03-03T23:49:54.946Z,65.73
2019-03-03T23:52:28.168Z,65.95
2019-03-03T23:54:58.766Z,66.35
2019-03-03T23:57:31.036Z,66.57
